Disclaimer

Please do not use the information listed here in-flight or in-navigation, as they are not provided to us by the airports but are provided by volunteers, so they might be outdated.

Search


Regions


Airport information page

Radio informations:
Tower (TWR) - 118.7 MHz
APRON - 121.7 MHz
INFO - 120.65 MHz
Ground (GND) - 119.4 MHz
Director (DIR) - 118.825 MHz
Clearance delivery - 121.725 MHz
ARR - 120.775 MHz
RADAR - 123.9 MHz

Airport informations:
Latitude: 48° 21' 13.62" N
Longitude: 011° 47' 09.91" E
Elevation: 1487 feet - 453 meters
Operating hours: NO OPERATING HOURS LISTED
Operating agency: Civil government, landing fees and diplomatic clearance may be required
Timezone: UTC+1(+2DT) - Last Sunday in March to last Sunday in October
Fuel: Jet A1, without icing nhibitor.

100/130 MIL Spec, low lead, aviation gasoline (BLUE)

Runway information:
08R/26L - 13123 x 197 feet< - >4000 x 60 meters
08L/26R - 13123 x 197 feet< - >4000 x 60 meters

Recent METARs:
EDDM 201350Z 11009KT CAVOK 05/M00 Q1004 NOSIG
EDDM 201420Z 10006KT CAVOK 05/M00 Q1005 NOSIG
EDDM 201450Z 09006KT CAVOK 05/M00 Q1005 NOSIG

Airport on the map: